createdAt,value
2022-10-11T00:00:13.214Z,52.62
2022-10-11T00:02:41.034Z,52.57
2022-10-11T00:05:10.564Z,52.55
2022-10-11T00:07:40.808Z,52.27
2022-10-11T00:13:50.923Z,52.52
2022-10-11T00:20:51.049Z,52.39
2022-10-11T00:23:18.953Z,52.18
2022-10-11T00:25:46.742Z,52.22
2022-10-11T00:28:14.614Z,52.13
2022-10-11T00:30:44.712Z,52.06
2022-10-11T00:33:12.589Z,52.03
2022-10-11T00:35:42.088Z,51.99
2022-10-11T00:38:12.915Z,52.01
2022-10-11T00:40:40.744Z,51.89
2022-10-11T00:43:17.275Z,52.83
2022-10-11T00:46:01.440Z,52.68
2022-10-11T00:48:34.519Z,52.61
2022-10-11T00:51:06.562Z,52.79
2022-10-11T00:53:34.852Z,52.89
2022-10-11T00:56:10.534Z,52.80
2022-10-11T00:58:39.956Z,52.81
2022-10-11T01:01:09.372Z,52.81
2022-10-11T01:03:39.644Z,52.80
2022-10-11T01:06:08.357Z,52.58
2022-10-11T01:08:37.112Z,52.75
2022-10-11T01:11:10.608Z,52.93
2022-10-11T01:13:48.745Z,52.77
2022-10-11T01:16:24.346Z,52.79
2022-10-11T01:19:03.085Z,52.70
2022-10-11T01:21:41.794Z,52.67
2022-10-11T01:24:28.265Z,52.57
2022-10-11T01:27:27.333Z,52.42
2022-10-11T01:30:04.568Z,52.34
2022-10-11T01:32:41.959Z,52.33
2022-10-11T01:35:16.348Z,52.20
2022-10-11T01:37:47.870Z,52.34
2022-10-11T01:40:22.210Z,52.13
2022-10-11T01:42:51.044Z,52.12
2022-10-11T01:45:20.658Z,52.21
2022-10-11T01:48:02.951Z,52.08
2022-10-11T01:50:39.868Z,51.95
2022-10-11T01:53:31.839Z,51.88
2022-10-11T01:56:10.929Z,51.79
2022-10-11T01:58:54.930Z,51.79
2022-10-11T02:01:31.013Z,51.69
2022-10-11T02:04:08.283Z,51.60
2022-10-11T02:06:46.258Z,51.43
2022-10-11T02:09:22.173Z,51.57
2022-10-11T02:11:50.127Z,51.43
2022-10-11T02:14:20.908Z,51.73
2022-10-11T02:16:55.365Z,51.31
2022-10-11T02:19:30.157Z,51.47
2022-10-11T02:22:04.374Z,51.38
2022-10-11T02:24:36.505Z,51.25
2022-10-11T02:27:06.661Z,51.16
2022-10-11T02:29:39.031Z,51.00
2022-10-11T02:32:09.866Z,51.10
2022-10-11T02:34:42.450Z,51.05
2022-10-11T02:37:16.661Z,51.02
2022-10-11T02:39:50.019Z,51.13
2022-10-11T02:42:22.032Z,50.92
2022-10-11T02:44:59.836Z,50.87
2022-10-11T02:47:28.019Z,50.67
2022-10-11T02:49:57.604Z,50.57
2022-10-11T02:52:25.539Z,50.75
2022-10-11T02:54:53.563Z,50.36
2022-10-11T02:57:21.515Z,50.59
2022-10-11T02:59:52.264Z,50.48
2022-10-11T03:02:20.229Z,50.49
2022-10-11T03:04:50.320Z,50.33
2022-10-11T03:07:19.582Z,50.37
2022-10-11T03:09:47.500Z,50.40
2022-10-11T03:12:15.475Z,50.28
2022-10-11T03:14:43.337Z,50.34
2022-10-11T03:17:34.618Z,50.11
2022-10-11T03:19:59.290Z,50.23
2022-10-11T03:22:28.599Z,49.99
2022-10-11T03:25:00.982Z,50.11
2022-10-11T03:27:31.446Z,50.08
2022-10-11T03:29:59.313Z,49.96
2022-10-11T03:32:27.255Z,49.96
2022-10-11T03:34:55.219Z,49.75
2022-10-11T03:37:23.317Z,49.88
2022-10-11T03:39:52.594Z,49.74
2022-10-11T03:42:20.516Z,49.72
2022-10-11T03:44:49.613Z,49.74
2022-10-11T03:47:17.536Z,49.56
2022-10-11T03:49:45.436Z,49.68
2022-10-11T03:52:13.318Z,49.48
2022-10-11T03:54:41.348Z,49.63
2022-10-11T03:57:10.772Z,49.54
2022-10-11T03:59:38.707Z,49.44
2022-10-11T04:02:08.802Z,49.33
2022-10-11T04:04:37.164Z,49.42
2022-10-11T04:07:05.115Z,49.44
2022-10-11T04:09:33.083Z,49.29
2022-10-11T04:12:01.009Z,49.43
2022-10-11T04:14:30.493Z,49.27
2022-10-11T04:17:00.342Z,49.12
2022-10-11T04:19:29.038Z,49.31
2022-10-11T04:21:57.028Z,49.09
2022-10-11T04:24:25.009Z,49.19
2022-10-11T04:26:55.171Z,49.07
2022-10-11T04:29:23.138Z,49.22
2022-10-11T04:31:52.361Z,49.29
2022-10-11T04:34:22.546Z,48.36
2022-10-11T04:36:50.480Z,48.02
2022-10-11T04:39:18.650Z,48.50
2022-10-11T04:41:46.651Z,48.83
2022-10-11T04:44:14.824Z,49.03
2022-10-11T04:46:42.745Z,49.18
2022-10-11T04:49:12.098Z,49.23
2022-10-11T04:51:40.116Z,49.10
2022-10-11T04:54:07.957Z,49.23
2022-10-11T04:56:38.983Z,49.20
2022-10-11T04:59:07.129Z,49.26
2022-10-11T05:01:35.337Z,49.30
2022-10-11T05:04:03.595Z,49.49
2022-10-11T05:06:33.116Z,49.78
2022-10-11T05:09:01.314Z,50.11
2022-10-11T05:11:29.326Z,49.78
2022-10-11T05:13:57.608Z,49.70
2022-10-11T05:16:25.774Z,49.68
2022-10-11T05:18:53.689Z,49.77
2022-10-11T05:21:23.998Z,49.63
2022-10-11T05:23:56.300Z,49.73
2022-10-11T05:26:25.181Z,49.81
2022-10-11T05:28:53.386Z,49.90
2022-10-11T05:31:21.714Z,50.03
2022-10-11T05:33:51.927Z,50.15
2022-10-11T05:36:19.865Z,50.11
2022-10-11T05:38:48.298Z,50.23
2022-10-11T05:41:18.635Z,50.20
2022-10-11T05:43:46.566Z,50.32
2022-10-11T05:46:14.711Z,50.21
2022-10-11T05:48:42.675Z,50.54
2022-10-11T05:51:11.957Z,50.46
2022-10-11T05:53:40.541Z,50.54
2022-10-11T05:56:19.246Z,50.84
2022-10-11T05:58:47.232Z,50.79
2022-10-11T06:01:20.610Z,50.77
2022-10-11T06:03:48.644Z,50.71
2022-10-11T06:06:16.920Z,50.56
2022-10-11T06:08:45.333Z,50.70
2022-10-11T06:11:14.810Z,50.77
2022-10-11T06:13:44.823Z,50.61
2022-10-11T06:16:13.532Z,50.70
2022-10-11T06:18:41.587Z,50.83
2022-10-11T06:21:09.573Z,50.95
2022-10-11T06:23:37.439Z,49.68
2022-10-11T06:26:08.234Z,47.74
2022-10-11T06:28:37.974Z,47.60
2022-10-11T06:31:08.416Z,47.15
2022-10-11T06:33:37.386Z,47.07
2022-10-11T06:36:07.890Z,47.11
2022-10-11T06:38:38.000Z,46.86
2022-10-11T06:41:12.820Z,46.97
2022-10-11T06:43:40.756Z,46.85
2022-10-11T06:46:10.108Z,46.97
2022-10-11T06:48:41.348Z,46.84
2022-10-11T06:51:09.262Z,46.86
2022-10-11T06:53:37.251Z,46.87
2022-10-11T06:56:05.527Z,46.87
2022-10-11T06:58:33.781Z,46.95
2022-10-11T07:01:02.771Z,46.95
2022-10-11T07:03:32.830Z,46.88
2022-10-11T07:06:02.851Z,47.19
2022-10-11T07:08:31.022Z,47.34
2022-10-11T07:11:01.833Z,47.21
2022-10-11T07:13:29.802Z,47.14
2022-10-11T07:15:58.077Z,47.06
2022-10-11T07:18:25.991Z,46.99
2022-10-11T07:20:55.309Z,46.82
2022-10-11T07:23:23.230Z,47.01
2022-10-11T07:25:54.455Z,46.89
2022-10-11T07:28:22.559Z,46.73
2022-10-11T07:30:50.950Z,46.79
2022-10-11T07:33:19.322Z,47.21
2022-10-11T07:35:48.534Z,47.32
2022-10-11T07:38:18.316Z,47.23
2022-10-11T07:40:47.417Z,47.06
2022-10-11T07:43:15.586Z,47.06
2022-10-11T07:45:48.410Z,47.29
2022-10-11T07:48:16.880Z,47.16
2022-10-11T07:50:47.370Z,47.36
2022-10-11T07:53:15.401Z,47.31
2022-10-11T07:55:44.700Z,47.33
2022-10-11T07:58:14.178Z,47.56
2022-10-11T08:00:42.733Z,47.86
2022-10-11T08:03:12.584Z,48.42
2022-10-11T08:05:40.446Z,48.22
2022-10-11T08:08:08.873Z,48.20
2022-10-11T08:10:39.327Z,48.07
2022-10-11T08:13:08.954Z,48.06
2022-10-11T08:15:37.152Z,48.26
2022-10-11T08:18:05.586Z,47.97
2022-10-11T08:20:33.702Z,48.25
2022-10-11T08:23:01.796Z,48.25
2022-10-11T08:25:29.848Z,48.27
2022-10-11T08:27:57.740Z,48.38
2022-10-11T08:30:27.299Z,48.53
2022-10-11T08:32:55.195Z,48.50
2022-10-11T08:35:23.143Z,48.58
2022-10-11T08:37:51.041Z,48.51
2022-10-11T08:40:23.179Z,48.54
2022-10-11T08:42:58.651Z,48.64
2022-10-11T08:45:36.569Z,48.65
2022-10-11T08:48:14.318Z,48.69
2022-10-11T08:50:45.587Z,48.87
2022-10-11T08:53:22.015Z,48.83
2022-10-11T08:55:52.298Z,48.90
2022-10-11T08:58:24.279Z,50.56
2022-10-11T09:00:56.475Z,50.70
2022-10-11T09:03:39.019Z,50.55
2022-10-11T09:06:20.409Z,50.81
2022-10-11T09:09:00.330Z,50.86
2022-10-11T09:11:42.523Z,50.70
2022-10-11T09:14:34.167Z,50.60
2022-10-11T09:17:14.849Z,50.42
2022-10-11T09:20:06.620Z,50.40
2022-10-11T09:22:46.939Z,50.41
2022-10-11T09:25:24.688Z,49.37
2022-10-11T09:28:06.430Z,49.45
2022-10-11T09:30:34.701Z,49.20
2022-10-11T09:33:14.513Z,49.36
2022-10-11T09:35:47.984Z,49.40
2022-10-11T09:38:31.950Z,49.14
2022-10-11T09:41:11.226Z,49.18
2022-10-11T09:43:41.301Z,49.48
2022-10-11T09:46:20.445Z,49.45
2022-10-11T09:48:51.478Z,49.53
2022-10-11T09:51:23.134Z,50.68
2022-10-11T09:53:54.652Z,51.34
2022-10-11T09:56:24.180Z,51.22
2022-10-11T09:59:07.969Z,51.33
2022-10-11T10:01:37.426Z,51.27
2022-10-11T10:04:10.698Z,51.27
2022-10-11T10:06:39.191Z,51.13
2022-10-11T10:09:36.966Z,51.02
2022-10-11T10:12:13.565Z,50.86
2022-10-11T10:14:42.497Z,50.77
2022-10-11T10:17:17.335Z,50.94
2022-10-11T10:19:51.826Z,50.83
2022-10-11T10:22:22.481Z,50.81
2022-10-11T10:24:52.392Z,50.71
2022-10-11T10:27:22.294Z,50.66
2022-10-11T10:30:20.777Z,50.75
2022-10-11T10:32:55.972Z,50.67
2022-10-11T10:35:32.560Z,50.67
2022-10-11T10:38:16.687Z,49.97
2022-10-11T10:40:49.558Z,50.56
2022-10-11T10:43:19.233Z,50.30
2022-10-11T10:46:10.479Z,50.80
2022-10-11T10:49:23.272Z,50.59
2022-10-11T10:51:45.201Z,50.41
2022-10-11T10:54:23.736Z,50.26
2022-10-11T10:56:55.004Z,49.76
2022-10-11T10:59:45.440Z,49.63
2022-10-11T11:02:39.603Z,50.34
2022-10-11T11:05:18.913Z,50.42
2022-10-11T11:07:54.060Z,50.56
2022-10-11T11:10:24.241Z,50.41
2022-10-11T11:13:15.961Z,50.08
2022-10-11T11:15:53.962Z,50.20
2022-10-11T11:18:30.229Z,50.19
2022-10-11T11:21:22.359Z,50.36
2022-10-11T11:24:02.153Z,50.09
2022-10-11T11:26:44.177Z,50.10
2022-10-11T11:29:21.303Z,49.97
2022-10-11T11:32:02.579Z,49.90
2022-10-11T11:34:37.843Z,49.91
2022-10-11T11:37:12.152Z,49.91
2022-10-11T11:39:49.448Z,49.86
2022-10-11T11:42:24.462Z,49.90
2022-10-11T11:44:53.433Z,49.84
2022-10-11T11:47:27.384Z,49.93
2022-10-11T11:50:00.051Z,49.73
2022-10-11T11:52:37.325Z,49.63
2022-10-11T11:55:16.391Z,49.63
2022-10-11T11:57:54.923Z,49.56
2022-10-11T12:00:24.867Z,49.79
2022-10-11T12:02:56.930Z,49.64
2022-10-11T12:05:28.772Z,49.57
2022-10-11T12:07:59.704Z,49.70
2022-10-11T12:10:35.226Z,49.77
2022-10-11T12:13:21.628Z,49.66
2022-10-11T12:15:59.781Z,49.78
2022-10-11T12:18:29.075Z,49.68
2022-10-11T12:21:06.453Z,49.58
2022-10-11T12:23:46.830Z,49.71
2022-10-11T12:26:38.439Z,49.50
2022-10-11T12:29:28.752Z,49.37
2022-10-11T12:32:51.951Z,49.39
2022-10-11T12:36:04.019Z,49.46
2022-10-11T12:38:37.762Z,49.46
2022-10-11T12:41:50.640Z,49.49
2022-10-11T12:44:23.799Z,49.38
2022-10-11T12:47:22.108Z,49.29
2022-10-11T12:50:18.603Z,49.50
2022-10-11T12:52:57.738Z,49.40
2022-10-11T12:55:43.551Z,49.49
2022-10-11T12:58:41.700Z,49.32
2022-10-11T13:01:30.307Z,49.34
2022-10-11T13:04:06.422Z,49.41
2022-10-11T13:06:38.190Z,49.38
2022-10-11T13:09:19.689Z,49.44
2022-10-11T13:11:51.810Z,49.35
2022-10-11T13:14:25.768Z,49.35
2022-10-11T13:17:08.474Z,49.23
2022-10-11T13:19:37.112Z,49.22
2022-10-11T13:22:14.306Z,49.32
2022-10-11T13:24:42.587Z,49.10
2022-10-11T13:27:19.711Z,49.12
2022-10-11T13:29:51.038Z,49.14
2022-10-11T13:32:23.794Z,49.15
2022-10-11T13:37:30.944Z,49.09
2022-10-11T13:39:59.577Z,49.29
2022-10-11T13:42:31.799Z,49.14
2022-10-11T13:45:01.109Z,49.04
2022-10-11T13:47:31.441Z,49.02
2022-10-11T13:50:10.900Z,49.12
2022-10-11T13:52:57.545Z,48.98
2022-10-11T13:55:29.464Z,49.07
2022-10-11T13:58:00.129Z,48.93
2022-10-11T14:00:33.991Z,48.80
2022-10-11T14:03:06.325Z,48.92
2022-10-11T14:05:36.483Z,49.00
2022-10-11T14:08:07.526Z,49.08
2022-10-11T14:10:38.591Z,48.91
2022-10-11T14:13:25.079Z,48.89
2022-10-11T14:16:07.041Z,48.96
2022-10-11T14:18:43.595Z,48.99
2022-10-11T14:21:30.514Z,48.95
2022-10-11T14:24:00.422Z,49.16
2022-10-11T14:26:32.501Z,48.95
2022-10-11T14:29:05.761Z,48.98
2022-10-11T14:31:40.556Z,49.00
2022-10-11T14:34:13.528Z,49.01
2022-10-11T14:36:41.500Z,48.93
2022-10-11T14:39:14.984Z,48.93
2022-10-11T14:41:42.981Z,48.96
2022-10-11T14:44:11.021Z,49.00
2022-10-11T14:46:41.277Z,49.02
2022-10-11T14:49:14.546Z,48.74
2022-10-11T14:51:44.354Z,48.96
2022-10-11T14:54:13.285Z,48.92
2022-10-11T14:56:41.232Z,48.87
2022-10-11T14:59:09.284Z,48.76
2022-10-11T15:01:37.258Z,48.78
2022-10-11T15:04:06.621Z,48.75
2022-10-11T15:06:39.466Z,48.66
2022-10-11T15:09:08.601Z,48.80
2022-10-11T15:11:37.859Z,48.69
2022-10-11T15:14:06.777Z,48.79
2022-10-11T15:16:35.023Z,48.94
2022-10-11T15:19:02.990Z,48.84
2022-10-11T15:21:32.432Z,48.78
2022-10-11T15:24:00.439Z,48.64
2022-10-11T15:26:30.009Z,48.70
2022-10-11T15:28:58.405Z,48.76
2022-10-11T15:31:26.444Z,48.78
2022-10-11T15:33:57.913Z,48.74
2022-10-11T15:36:27.180Z,48.68
2022-10-11T15:38:56.943Z,48.63
2022-10-11T15:41:25.014Z,49.19
2022-10-11T15:43:52.916Z,49.87
2022-10-11T15:46:24.041Z,49.82
2022-10-11T15:48:52.792Z,49.98
2022-10-11T15:51:20.957Z,49.95
2022-10-11T15:53:49.234Z,50.00
2022-10-11T15:56:19.694Z,50.02
2022-10-11T15:58:47.994Z,50.18
2022-10-11T16:01:17.921Z,50.16
2022-10-11T16:03:47.092Z,50.21
2022-10-11T16:06:18.190Z,50.30
2022-10-11T16:08:47.295Z,50.33
2022-10-11T16:11:15.306Z,50.27
2022-10-11T16:13:45.130Z,50.28
2022-10-11T16:16:13.406Z,50.20
2022-10-11T16:18:41.665Z,50.26
2022-10-11T16:21:12.101Z,50.23
2022-10-11T16:23:40.312Z,50.15
2022-10-11T16:26:10.637Z,50.26
2022-10-11T16:28:39.297Z,50.17
2022-10-11T16:31:09.244Z,50.18
2022-10-11T16:33:45.556Z,50.33
2022-10-11T16:36:35.496Z,50.12
2022-10-11T16:39:06.650Z,50.03
2022-10-11T16:41:34.553Z,50.03
2022-10-11T16:44:02.570Z,49.99
2022-10-11T16:46:32.640Z,49.74
2022-10-11T16:49:00.556Z,49.78
2022-10-11T16:51:28.523Z,49.72
2022-10-11T16:53:56.593Z,49.72
2022-10-11T16:56:25.138Z,49.65
2022-10-11T16:58:53.699Z,49.69
2022-10-11T17:01:21.987Z,49.54
2022-10-11T17:03:51.599Z,49.54
2022-10-11T17:06:20.365Z,49.53
2022-10-11T17:08:48.392Z,49.54
2022-10-11T17:11:17.704Z,49.64
2022-10-11T17:13:45.773Z,49.58
2022-10-11T17:16:13.802Z,49.80
2022-10-11T17:18:41.885Z,49.83
2022-10-11T17:21:14.293Z,49.77
2022-10-11T17:23:43.101Z,50.02
2022-10-11T17:26:16.166Z,49.99
2022-10-11T17:28:44.645Z,49.94
2022-10-11T17:31:12.650Z,49.93
2022-10-11T17:33:40.606Z,49.87
2022-10-11T17:36:19.612Z,49.93
2022-10-11T17:38:48.010Z,50.11
2022-10-11T17:41:16.253Z,49.97
2022-10-11T17:43:44.775Z,48.48
2022-10-11T17:46:17.205Z,48.01
2022-10-11T17:48:45.636Z,47.98
2022-10-11T17:51:16.889Z,49.17
2022-10-11T17:53:45.621Z,49.57
2022-10-11T17:56:15.840Z,49.88
2022-10-11T17:58:45.208Z,49.56
2022-10-11T18:01:18.958Z,49.63
2022-10-11T18:03:52.760Z,50.05
2022-10-11T18:06:22.123Z,49.84
2022-10-11T18:08:52.861Z,49.90
2022-10-11T18:11:21.677Z,50.02
2022-10-11T18:13:50.963Z,49.96
2022-10-11T18:16:20.737Z,49.97
2022-10-11T18:18:49.839Z,49.99
2022-10-11T18:21:18.680Z,50.04
2022-10-11T18:23:48.111Z,50.03
2022-10-11T18:26:17.920Z,50.31
2022-10-11T18:28:46.188Z,50.40
2022-10-11T18:31:19.485Z,50.31
2022-10-11T18:33:48.442Z,50.23
2022-10-11T18:36:18.186Z,50.25
2022-10-11T18:38:49.333Z,50.26
2022-10-11T18:41:19.349Z,50.06
2022-10-11T18:43:50.867Z,50.27
2022-10-11T18:46:19.774Z,50.34
2022-10-11T18:48:49.829Z,50.11
2022-10-11T18:51:20.684Z,50.25
2022-10-11T18:53:50.959Z,50.13
2022-10-11T18:56:24.612Z,50.31
2022-10-11T18:58:55.705Z,50.00
2022-10-11T19:01:26.035Z,50.31
2022-10-11T19:03:58.318Z,50.03
2022-10-11T19:06:28.400Z,49.98
2022-10-11T19:09:01.757Z,50.13
2022-10-11T19:11:30.148Z,50.08
2022-10-11T19:13:59.421Z,50.26
2022-10-11T19:16:29.507Z,50.27
2022-10-11T19:18:58.532Z,50.16
2022-10-11T19:21:27.451Z,50.02
2022-10-11T19:23:57.846Z,50.09
2022-10-11T19:26:28.875Z,49.96
2022-10-11T19:28:58.320Z,50.14
2022-10-11T19:31:27.063Z,50.04
2022-10-11T19:33:55.217Z,50.28
2022-10-11T19:36:23.172Z,50.08
2022-10-11T19:38:52.252Z,49.99
2022-10-11T19:41:21.776Z,50.21
2022-10-11T19:43:49.744Z,50.07
2022-10-11T19:46:37.961Z,49.92
2022-10-11T19:49:09.508Z,49.77
2022-10-11T19:51:38.181Z,50.23
2022-10-11T19:54:08.720Z,50.14
2022-10-11T19:56:38.085Z,50.24
2022-10-11T19:59:07.405Z,49.97
2022-10-11T20:01:37.001Z,50.18
2022-10-11T20:04:06.971Z,50.25
2022-10-11T20:06:38.744Z,50.00
2022-10-11T20:09:28.398Z,50.15
2022-10-11T20:12:00.052Z,50.05
2022-10-11T20:14:28.042Z,50.24
2022-10-11T20:16:55.998Z,49.79
2022-10-11T20:19:30.671Z,49.52
2022-10-11T20:21:59.653Z,49.83
2022-10-11T20:24:29.004Z,49.51
2022-10-11T20:26:57.098Z,49.82
2022-10-11T20:29:26.870Z,49.78
2022-10-11T20:31:56.325Z,49.69
2022-10-11T20:34:24.230Z,49.71
2022-10-11T20:36:52.397Z,48.60
2022-10-11T20:39:20.445Z,48.97
2022-10-11T20:41:48.419Z,49.56
2022-10-11T20:44:17.935Z,49.44
2022-10-11T20:46:47.231Z,49.25
2022-10-11T20:49:15.134Z,49.49
2022-10-11T20:51:43.815Z,49.19
2022-10-11T20:54:12.330Z,49.54
2022-10-11T20:56:40.894Z,49.36
2022-10-11T20:59:09.329Z,49.34
2022-10-11T21:01:38.852Z,49.29
2022-10-11T21:04:11.384Z,49.35
2022-10-11T21:06:39.377Z,49.19
2022-10-11T21:09:08.532Z,49.43
2022-10-11T21:11:38.463Z,48.98
2022-10-11T21:14:07.481Z,49.27
2022-10-11T21:16:35.786Z,49.66
2022-10-11T21:19:04.360Z,49.81
2022-10-11T21:21:33.650Z,49.87
2022-10-11T21:24:03.167Z,49.73
2022-10-11T21:26:31.793Z,49.59
2022-10-11T21:29:00.224Z,49.75
2022-10-11T21:31:33.592Z,50.07
2022-10-11T21:34:02.407Z,50.22
2022-10-11T21:36:30.531Z,50.34
2022-10-11T21:38:59.988Z,50.30
2022-10-11T21:41:30.035Z,50.16
2022-10-11T21:43:58.723Z,50.17
2022-10-11T21:46:47.492Z,50.24
2022-10-11T21:49:16.490Z,50.27
2022-10-11T21:51:46.852Z,50.53
2022-10-11T21:54:16.229Z,50.51
2022-10-11T21:56:44.284Z,50.60
2022-10-11T21:59:12.834Z,50.62
2022-10-11T22:01:41.729Z,50.49
2022-10-11T22:04:10.542Z,50.72
2022-10-11T22:06:38.952Z,50.38
2022-10-11T22:09:08.361Z,50.33
2022-10-11T22:11:38.085Z,50.54
2022-10-11T22:14:06.173Z,50.13
2022-10-11T22:16:34.327Z,50.14
2022-10-11T22:19:02.348Z,50.24
2022-10-11T22:21:30.346Z,49.93
2022-10-11T22:24:00.708Z,49.94
2022-10-11T22:26:31.141Z,49.90
2022-10-11T22:29:00.698Z,49.71
2022-10-11T22:31:29.075Z,49.84
2022-10-11T22:33:57.795Z,49.60
2022-10-11T22:36:26.746Z,49.50
2022-10-11T22:38:55.467Z,49.58
2022-10-11T22:41:26.238Z,49.39
2022-10-11T22:43:54.210Z,49.43
2022-10-11T22:46:23.465Z,49.47
2022-10-11T22:48:51.426Z,49.24
2022-10-11T22:51:19.446Z,49.36
2022-10-11T22:53:47.414Z,49.32
2022-10-11T22:56:15.380Z,49.09
2022-10-11T22:58:43.260Z,49.16
2022-10-11T23:01:13.012Z,49.10
2022-10-11T23:03:42.353Z,48.94
2022-10-11T23:06:10.378Z,48.82
2022-10-11T23:08:38.344Z,48.92
2022-10-11T23:11:07.852Z,48.63
2022-10-11T23:13:36.210Z,48.64
2022-10-11T23:16:07.427Z,48.84
2022-10-11T23:18:35.561Z,48.74
2022-10-11T23:21:06.051Z,48.48
2022-10-11T23:23:37.052Z,48.50
2022-10-11T23:26:09.934Z,48.45
2022-10-11T23:28:38.276Z,48.60
2022-10-11T23:31:11.212Z,48.41
2022-10-11T23:33:39.508Z,48.34
2022-10-11T23:36:15.127Z,48.42
2022-10-11T23:38:43.361Z,48.18
2022-10-11T23:41:11.275Z,48.25
2022-10-11T23:43:39.268Z,48.26
2022-10-11T23:46:07.146Z,48.22
2022-10-11T23:48:35.027Z,48.04
2022-10-11T23:51:02.974Z,48.04
2022-10-11T23:53:32.261Z,47.98
2022-10-11T23:56:00.176Z,47.99
2022-10-11T23:58:28.021Z,47.94
